Weersoverzicht van METAR-stations binnen 150 km

EHRD - Rotterdam Airport
Afstand tot weerstation: ZO 28 km
Update: 22-06-2018 06:55
Overwegend bewolkt
Overwegend bewolkt
 Wind van NW
Wind: NW 26 km/h
Temperatuur: 13°C
Dauwpunt: 8°C
Luchtvochtigheid: 72%
Luchtdruk: 1025 hPa
Bewolking: Overwegend bewolkt
Zicht: 10 km
Details Bewolking: Overwegend bewolkt 853 m
Overwegend bewolkt 1006 m
Overwegend bewolkt 1128 m
2018/06/22 04:55 EHRD 220455Z AUTO 31014KT 260V020 9999 BKN028 BKN033 BKN037 13/08 Q1025 NOSIG
EHSC - Goeree Le Sea (Platform ter hoogte van Zeeland)
Afstand tot weerstation: WZW 36 km
Update: 22-06-2018 06:55

 Wind van NW
Wind: NW 52 km/h
Temperatuur: 14°C
Dauwpunt: 7°C
Luchtvochtigheid: 63%
Luchtdruk: 1026 hPa
Zicht: 10 km
2018/06/22 04:55 EHSC 220455Z AUTO 32028KT 9999 ///////// 14/07 Q1026 W15/H24
 
EHAM - A'dam Schiphol
Afstand tot weerstation: ONO 51 km
Update: 22-06-2018 06:55
Gedeeltelijk bewolkt
Gedeeltelijk bewolkt
 Wind van NW
Wind: NW 39 km/h
Temperatuur: 13°C
Dauwpunt: 7°C
Luchtvochtigheid: 67%
Luchtdruk: 1024 hPa
Bewolking: Gedeeltelijk bewolkt
Zicht: 10 km
Details Bewolking: Enkele wolken 853 m
Enkele wolken 945 m
Gedeeltelijk bewolkt 1219 m
2018/06/22 04:55 EHAM 220455Z 31021KT 280V350 9999 FEW028 FEW031TCU SCT040 13/07 Q1024 NOSIG
EHSA - Euro Platform (Ter hoogte van Zeeland)
Afstand tot weerstation: W 58 km
Update: 22-06-2018 06:55

 Wind van WNW
Wind: WNW 43 km/h
Temperatuur: 14°C
Dauwpunt: 8°C
Luchtvochtigheid: 67%
Luchtdruk: 1026 hPa
2018/06/22 04:55 EHSA 220455Z AUTO 29023KT //// // ///////// 14/08 Q1026 RE// W14/H21
 
EHPG - P11-B Sea (Platform ter hoogte van Zuid Holland)
Afstand tot weerstation: NW 60 km
Update: 22-06-2018 06:55
Helder
Helder
 Wind van NW
Wind: NW 41 km/h
Temperatuur: 13°C
Dauwpunt: 7°C
Luchtvochtigheid: 67%
Luchtdruk: 1026 hPa
Bewolking: Helder
Zicht: 10 km
2018/06/22 04:55 EHPG 220455Z AUTO 32022KT 270V350 9999 NCD 13/07 Q1026 W///H///
EHWO - Vliegveld Woensdrecht
Afstand tot weerstation: ZZO 65 km
Update: 22-06-2018 06:55
Gedeeltelijk bewolkt
Gedeeltelijk bewolkt
 Wind van WNW
Wind: WNW 22 km/h
Temperatuur: 13°C
Dauwpunt: 7°C
Luchtvochtigheid: 67%
Luchtdruk: 1026 hPa
Bewolking: Gedeeltelijk bewolkt
Zicht: 10 km
Details Bewolking: Gedeeltelijk bewolkt 1158 m
2018/06/22 04:55 EHWO 220455Z AUTO 30012KT 230V340 9999 SCT038 13/07 Q1026 BLU
 
EHGR - Vliegveld Gilze-Rijen
Afstand tot weerstation: ZO 79 km
Update: 22-06-2018 06:55
Enkele wolken
Enkele wolken
 Wind van WNW
Wind: WNW 20 km/h
Temperatuur: 13°C
Dauwpunt: 7°C
Luchtvochtigheid: 67%
Luchtdruk: 1025 hPa
Bewolking: Enkele wolken
Zicht: 10 km
Details Bewolking: Enkele wolken 975 m
2018/06/22 04:55 EHGR 220455Z AUTO 30011KT 260V340 9999 FEW032 13/07 Q1025 BLU
EHQE - Hoorn-A Sea (Platform ter hoogte van Noord Holland)
Afstand tot weerstation: N 103 km
Update: 22-06-2018 06:55
Zwaar bewolkt
Zwaar bewolkt
 Wind van NW
Wind: NW 70 km/h
Temperatuur: 13°C
Dauwpunt: 7°C
Luchtvochtigheid: 67%
Luchtdruk: 1024 hPa
Bewolking: Zwaar bewolkt
Zicht: 10 km
Details Bewolking: Enkele wolken 792 m
Overwegend bewolkt 914 m
Zwaar bewolkt 1067 m
2018/06/22 04:55 EHQE 220455Z AUTO 32038KT 9999 FEW026 BKN030 OVC035 13/07 Q1024 W///H///
 
EHKD - Marinebasis De Kooy (Den Helder)
Afstand tot weerstation: NNO 114 km
Update: 22-06-2018 06:55
Lichte regen, Zwaar bewolkt
Lichte regen, Zwaar bewolkt
 Wind van NW
Wind: NW 39 km/h
Temperatuur: 12°C
Dauwpunt: 8°C
Luchtvochtigheid: 77%
Luchtdruk: 1023 hPa
Overzicht: Lichte regen
Bewolking: Zwaar bewolkt
Zicht: 10 km
Details Bewolking: Enkele wolken 518 m
Overwegend bewolkt 610 m
Zwaar bewolkt 884 m
2018/06/22 04:55 EHKD 220455Z AUTO 32021KT 290V360 9999 -RA FEW017 BKN020 OVC029 12/08 Q1023 WHT 31018G30KT 9999 BKN025 TEMPO 32020G35KT SCT020CB BKN025
EHEH - Vliegveld Eindhoven
Afstand tot weerstation: OZO 115 km
Update: 22-06-2018 06:55
Gedeeltelijk bewolkt
Gedeeltelijk bewolkt
 Wind van W
Wind: W 15 km/h
Temperatuur: 11°C
Dauwpunt: 7°C
Luchtvochtigheid: 77%
Luchtdruk: 1024 hPa
Bewolking: Gedeeltelijk bewolkt
Zicht: 10 km
Details Bewolking: Gedeeltelijk bewolkt 1006 m
2018/06/22 04:55 EHEH 220455Z AUTO 26008KT 220V310 9999 SCT033 11/07 Q1024 BLU 25008KT 9999 SCT035 BECMG 30012G22KT
 
EHVK - Vliegveld Volkel
Afstand tot weerstation: OZO 124 km
Update: 22-06-2018 06:55
Enkele wolken
Enkele wolken
 Wind van W
Wind: W 15 km/h
Temperatuur: 12°C
Dauwpunt: 7°C
Luchtvochtigheid: 72%
Luchtdruk: 1023 hPa
Bewolking: Enkele wolken
Zicht: 10 km
Details Bewolking: Enkele wolken 945 m
2018/06/22 04:55 EHVK 220455Z AUTO 27008KT 250V320 9999 FEW031 12/07 Q1023 BLU
EHDL - Vliegveld Deelen
Afstand tot weerstation: O 128 km
Update: 22-06-2018 06:55
Overwegend bewolkt
Overwegend bewolkt
 Wind van WNW
Wind: WNW 24 km/h
Temperatuur: 13°C
Dauwpunt: 6°C
Luchtvochtigheid: 63%
Luchtdruk: 1022 hPa
Bewolking: Overwegend bewolkt
Zicht: 10 km
Details Bewolking: Enkele wolken 975 m
Overwegend bewolkt 1128 m
Overwegend bewolkt 1250 m
2018/06/22 04:55 EHDL 220455Z AUTO 29013KT 230V010 9999 FEW032 BKN037 BKN041 13/06 Q1022 BLU